모두
Real County Airport (Leakey, TX) 49R 기상
There is no TAF data available at 49R or any nearby airports.
There is no METAR data available at 49R. Showing METAR data for KECU (28 mi 서).
최근 ECU METAR 이력(49R에 대한 데이터 없음)
| Date | Time (CDT) | Flight Rules | Wind Dir. | Speed | Type | Height AGL (ft) | Visibility | Temp (°C) | Temp (°F) | Dew Point (°C) | Dew Point (°F) | Rel. Humid. | Pressure | Density Altitude | Remarks |
|---|---|---|---|---|---|---|---|---|---|---|---|---|---|---|---|
| 04-9월 | 20:55 | VFR | 100° | 3 kt | Clear |
10 miles | 26° | 78° | 19° | 66° | 65% | 30.01 in Hg | 4,077 ft | ||
| 04-9월 | 20:35 | VFR | 110° | 3 kt | Clear |
10 miles | 26° | 78° | 19° | 66° | 65% | 30.00 in Hg | 4,087 ft | ||
| 04-9월 | 20:15 | VFR | Calm | 10 miles | 27° | 80° | 19° | 66° | 62% | 30.00 in Hg | 4,207 ft | ||||
| 04-9월 | 19:55 | VFR | 70° | 4 kt | 10 miles | 27° | 80° | 19° | 66° | 62% | 30.00 in Hg | 4,207 ft | |||
| 04-9월 | 19:15 | VFR | 20° | 4 kt | 10 miles | 27° | 80° | 19° | 66° | 62% | 30.02 in Hg | 4,187 ft | |||
| 04-9월 | 18:55 | VFR | 360° | 7 kt | 10 miles | 27° | 80° | 19° | 66° | 62% | 30.03 in Hg | 4,177 ft | Wind gusting to 19 KT | ||
| 04-9월 | 18:15 | VFR | 110° | 8 kt | 10 miles | 31° | 87° | 19° | 66° | 49% | 29.99 in Hg | 4,697 ft | Wind gusting to 13 KT | ||
| 04-9월 | 17:55 | VFR | 140° | 10 kt | 10 miles | 32° | 89° | 19° | 66° | 46% | 29.98 in Hg | 4,827 ft | Wind gusting to 15 KT | ||
| 04-9월 | 17:15 | VFR | 130° | 12 kt | 10 miles | 33° | 91° | 19° | 66° | 44% | 29.97 in Hg | 4,957 ft | Wind gusting to 19 KT | ||
| 04-9월 | 16:55 | VFR | 170° | 11 kt | 10 miles | 35° | 95° | 19° | 66° | 39% | 29.96 in Hg | 5,207 ft | Wind gusting to 20 KT | ||
| 04-9월 | 16:15 | VFR | 130° | 11 kt | 10 miles | 34° | 93° | 19° | 66° | 41% | 29.98 in Hg | 5,067 ft | Wind gusting to 18 KT | ||
| 04-9월 | 15:55 | VFR | Variable | 6 kt | 10 miles | 34° | 93° | 19° | 66° | 41% | 29.99 in Hg | 5,057 ft | Wind gusting to 16 KT | ||
| 04-9월 | 15:15 | VFR | 140° | 9 kt | 10 miles | 34° | 93° | 19° | 66° | 41% | 30.01 in Hg | 5,037 ft | Wind gusting to 15 KT | ||
| 04-9월 | 14:55 | VFR | 140° | 7 kt | 10 miles | 33° | 91° | 19° | 66° | 44% | 30.02 in Hg | 4,907 ft | Wind gusting to 13 KT | ||
| 04-9월 | 14:15 | VFR | 130° | 9 kt | 10 miles | 33° | 91° | 20° | 68° | 46% | 30.03 in Hg | 4,897 ft | Wind gusting to 16 KT | ||
| 04-9월 | 13:55 | VFR | 170° | 8 kt | 10 miles | 33° | 91° | 20° | 68° | 46% | 30.04 in Hg | 4,887 ft | Wind gusting to 17 KT | ||
| 04-9월 | 13:15 | VFR | 140° | 7 kt | 10 miles | 32° | 89° | 20° | 68° | 49% | 30.05 in Hg | 4,757 ft | Wind gusting to 14 KT | ||
| 04-9월 | 12:55 | VFR | 150° | 11 kt | 10 miles | 32° | 89° | 20° | 68° | 49% | 30.06 in Hg | 4,747 ft | |||
| 04-9월 | 12:15 | VFR | 170° | 10 kt | 10 miles | 31° | 87° | 20° | 68° | 52% | 30.07 in Hg | 4,617 ft | |||
| 04-9월 | 11:55 | VFR | 120° | 9 kt | 10 miles | 30° | 86° | 21° | 69° | 59% | 30.07 in Hg | 4,497 ft | Wind gusting to 15 KT | ||
| 04-9월 | 11:35 | VFR | 140° | 10 kt | 10 miles | 30° | 86° | 21° | 69° | 59% | 30.06 in Hg | 4,507 ft | |||
| 04-9월 | 11:15 | VFR | 120° | 8 kt | 10 miles | 29° | 84° | 21° | 69° | 62% | 30.06 in Hg | 4,387 ft | Wind gusting to 15 KT | ||
| 04-9월 | 10:55 | VFR | 150° | 11 kt | Few |
2,000 |
10 miles | 29° | 84° | 21° | 69° | 62% | 30.06 in Hg | 4,387 ft | |
| 04-9월 | 10:35 | VFR | 150° | 11 kt | Scattered |
1,600 |
10 miles | 28° | 82° | 21° | 69° | 66% | 30.05 in Hg | 4,277 ft |
로그인
| 귀하의 브라우저는 지원되지 않습니다.. 브라우저를 업그레이드하세요 |
